Time;durP1;ratioP1;P1;durP2;ratioP2;P2;SDS_P1;SDS_P2;PMS_P1;PMS_P2;Temp;Humidity;BMP_temperature;BMP_pressure;BME280_temperature;BME280_humidity;BME280_pressure;Samples;Min_cycle;Max_cycle;Signal;HPM_P1;HPM_P2
2021/09/06 00:00:09;;;;;;;0.90;0.70;;;;;;;26.57;22.12;99087.19;5070404;28;20051;-82
2021/09/06 00:02:36;;;;;;;1.40;0.85;;;;;;;26.74;21.48;99086.09;5068722;28;20504;-82
2021/09/06 00:05:05;;;;;;;1.48;0.90;;;;;;;27.03;21.55;99082.78;5052218;28;20029;-83
2021/09/06 00:07:31;;;;;;;1.70;0.90;;;;;;;26.94;21.52;99088.19;5070553;28;20088;-83
2021/09/06 00:10:13;;;;;;;1.70;1.10;;;;;;;27.07;21.03;99089.94;5050667;28;20024;-83
2021/09/06 00:12:39;;;;;;;1.75;1.00;;;;;;;27.14;21.01;99091.88;5065624;28;20120;-83
2021/09/06 00:15:05;;;;;;;1.92;0.80;;;;;;;27.11;21.13;99087.88;5070946;28;20103;-83
2021/09/06 00:17:32;;;;;;;2.33;1.00;;;;;;;27.20;21.25;99087.31;5071096;28;20078;-82
2021/09/06 00:19:58;;;;;;;2.45;0.80;;;;;;;27.32;20.86;99081.03;5068960;28;20044;-83
2021/09/06 00:22:24;;;;;;;1.13;0.85;;;;;;;27.53;20.75;99079.84;5070889;28;20060;-83
2021/09/06 00:24:50;;;;;;;0.98;0.80;;;;;;;27.33;20.84;99079.78;5069042;28;20089;-83
2021/09/06 00:27:16;;;;;;;0.85;0.68;;;;;;;27.20;21.07;99081.66;5069442;28;20073;-83
2021/09/06 00:29:42;;;;;;;2.25;1.35;;;;;;;27.09;21.74;99083.91;5069672;28;20369;-83
2021/09/06 00:32:08;;;;;;;1.25;0.93;;;;;;;27.00;21.85;99086.50;5050987;28;20057;-83
2021/09/06 00:34:34;;;;;;;3.55;1.27;;;;;;;26.88;21.47;99084.28;5068533;28;20053;-83
2021/09/06 00:37:00;;;;;;;2.90;1.20;;;;;;;27.16;21.39;99083.78;5069101;28;20031;-83
2021/09/06 00:39:26;;;;;;;2.30;1.10;;;;;;;27.42;21.35;99094.19;5052888;28;20144;-83
2021/09/06 00:41:52;;;;;;;2.15;1.00;;;;;;;27.64;20.56;99074.78;5068306;28;20060;-82
2021/09/06 00:44:18;;;;;;;1.50;0.95;;;;;;;27.61;20.81;99090.56;5060508;28;20095;-82
2021/09/06 00:46:47;;;;;;;2.35;1.05;;;;;;;27.66;20.81;99078.75;5069614;28;20086;-82
2021/09/06 00:49:16;;;;;;;1.02;0.90;;;;;;;27.56;20.48;99090.28;5065139;28;20032;-82
2021/09/06 00:51:42;;;;;;;1.10;1.00;;;;;;;27.47;20.65;99096.47;5069936;28;20090;-82
2021/09/06 00:54:09;;;;;;;1.58;0.80;;;;;;;27.17;20.94;99090.97;5069684;28;20035;-82
2021/09/06 00:56:35;;;;;;;1.45;0.90;;;;;;;26.76;21.52;99094.13;5066554;28;20064;-82
2021/09/06 00:59:02;;;;;;;1.98;0.82;;;;;;;27.02;21.21;99098.94;5062939;28;20053;-82
2021/09/06 01:01:28;;;;;;;1.30;0.90;;;;;;;27.18;20.74;99092.59;5068173;28;20070;-82
2021/09/06 01:03:54;;;;;;;1.63;0.90;;;;;;;27.35;20.96;99089.41;5069879;28;20045;-82
2021/09/06 01:06:20;;;;;;;2.47;1.17;;;;;;;27.47;20.70;99082.38;5069686;28;20024;-82
2021/09/06 01:08:46;;;;;;;1.00;0.70;;;;;;;27.13;20.69;99082.59;5071027;28;20029;-82
2021/09/06 01:11:12;;;;;;;1.38;0.88;;;;;;;27.20;20.18;99085.28;5069131;28;20415;-82
2021/09/06 01:13:38;;;;;;;1.15;0.90;;;;;;;27.40;20.18;99088.16;5071165;28;20044;-82
2021/09/06 01:16:05;;;;;;;1.85;0.90;;;;;;;27.57;19.69;99091.84;5068680;28;20097;-82
2021/09/06 01:18:31;;;;;;;1.63;0.90;;;;;;;27.66;19.62;99080.78;5069691;28;20040;-82
2021/09/06 01:20:57;;;;;;;1.85;0.80;;;;;;;27.73;19.65;99081.44;5070047;28;20059;-82
2021/09/06 01:23:23;;;;;;;2.05;1.05;;;;;;;27.69;19.61;99072.25;5053718;28;20060;-82
2021/09/06 01:25:50;;;;;;;1.73;0.80;;;;;;;27.71;20.14;99078.25;5071204;28;20492;-83
2021/09/06 01:28:17;;;;;;;0.73;0.73;;;;;;;27.62;19.53;99075.22;5075393;28;20036;-82
2021/09/06 01:30:43;;;;;;;1.13;0.80;;;;;;;27.42;20.13;99072.38;5072373;28;20024;-82
2021/09/06 01:33:09;;;;;;;1.25;0.75;;;;;;;27.36;20.29;99081.75;5075833;28;20036;-82
2021/09/06 01:35:35;;;;;;;1.50;0.90;;;;;;;27.16;20.29;99072.50;5049214;28;20507;-82
2021/09/06 01:38:01;;;;;;;1.02;0.75;;;;;;;27.00;21.01;99078.03;5036218;28;20040;-82
2021/09/06 01:40:27;;;;;;;0.75;0.70;;;;;;;26.79;20.99;99075.59;5053358;28;20044;-82
2021/09/06 01:42:54;;;;;;;1.55;1.10;;;;;;;26.47;21.45;99076.06;5066055;28;20037;-82
2021/09/06 01:45:20;;;;;;;0.65;0.60;;;;;;;26.56;20.98;99079.94;5058277;28;20834;-82
2021/09/06 01:47:46;;;;;;;1.27;0.90;;;;;;;26.56;21.48;99079.94;5053883;28;20040;-82
2021/09/06 01:50:13;;;;;;;2.00;0.95;;;;;;;26.36;21.88;99081.06;5045662;28;20128;-82
2021/09/06 01:52:39;;;;;;;1.70;0.80;;;;;;;26.52;21.81;99093.28;5049569;28;20033;-82
2021/09/06 01:55:06;;;;;;;2.17;0.85;;;;;;;26.69;21.36;99083.75;5070812;28;20029;-83
2021/09/06 01:57:32;;;;;;;1.60;1.00;;;;;;;26.77;20.98;99089.31;5066050;28;20028;-83
2021/09/06 01:59:59;;;;;;;2.15;0.90;;;;;;;27.05;20.30;99080.34;5069642;28;20033;-82
2021/09/06 02:02:25;;;;;;;1.08;0.93;;;;;;;26.91;20.79;99083.44;5072342;28;20059;-83
2021/09/06 02:04:51;;;;;;;1.45;0.80;;;;;;;26.48;20.88;99095.38;5070736;28;20025;-82
2021/09/06 02:07:17;;;;;;;0.82;0.70;;;;;;;26.70;20.56;99093.78;5074726;28;20116;-83
2021/09/06 02:09:43;;;;;;;0.77;0.73;;;;;;;26.81;21.13;99093.66;5073405;28;20025;-83
2021/09/06 02:12:09;;;;;;;1.25;0.75;;;;;;;26.83;21.35;99096.84;5072080;28;20028;-82
2021/09/06 02:14:36;;;;;;;1.92;0.90;;;;;;;26.71;20.79;99095.41;5070719;28;20077;-82
2021/09/06 02:17:02;;;;;;;1.45;1.00;;;;;;;26.83;21.10;99098.84;5073851;28;20040;-82
2021/09/06 02:19:28;;;;;;;1.58;1.05;;;;;;;26.92;21.21;99104.72;5068806;28;20495;-83
2021/09/06 02:21:54;;;;;;;1.23;1.08;;;;;;;26.83;20.35;99093.22;5069657;28;20436;-82
2021/09/06 02:24:20;;;;;;;1.25;0.77;;;;;;;27.06;20.35;99087.56;5070644;28;20472;-82
2021/09/06 02:26:46;;;;;;;1.20;0.90;;;;;;;27.10;20.25;99089.09;5069450;28;20034;-82
2021/09/06 02:29:12;;;;;;;2.10;0.90;;;;;;;27.01;20.21;99088.06;5069335;28;20056;-82
2021/09/06 02:31:39;;;;;;;1.50;0.70;;;;;;;27.00;20.01;99092.91;5073608;28;20032;-83
2021/09/06 02:34:05;;;;;;;1.20;0.73;;;;;;;27.10;20.11;99091.13;5068931;28;20033;-82
2021/09/06 02:36:32;;;;;;;1.40;0.70;;;;;;;27.07;19.92;99089.94;5065389;28;20032;-82
2021/09/06 02:38:58;;;;;;;1.70;0.70;;;;;;;27.06;20.64;99093.22;5072740;28;20032;-82
2021/09/06 02:41:24;;;;;;;1.08;0.70;;;;;;;27.16;20.15;99095.06;5071050;28;20044;-82
2021/09/06 02:43:50;;;;;;;1.00;0.90;;;;;;;26.91;20.33;99097.53;5069877;28;20056;-82
2021/09/06 02:46:16;;;;;;;1.40;0.85;;;;;;;27.07;20.17;99100.47;5071399;28;20032;-82
2021/09/06 02:48:42;;;;;;;1.33;0.65;;;;;;;27.25;20.30;99093.25;5073217;28;20099;-82
2021/09/06 02:51:08;;;;;;;1.70;0.80;;;;;;;26.71;20.81;99088.97;5067932;28;20020;-82
2021/09/06 02:53:34;;;;;;;0.80;0.60;;;;;;;26.85;20.77;99100.03;5070965;28;20452;-82
2021/09/06 02:56:00;;;;;;;0.80;0.80;;;;;;;27.00;20.38;99095.72;5053334;28;20488;-82
2021/09/06 02:58:26;;;;;;;1.90;0.70;;;;;;;26.94;20.28;99096.63;5052238;28;20047;-82
2021/09/06 03:00:52;;;;;;;0.90;0.77;;;;;;;26.84;20.88;99089.19;5067150;28;20057;-82
2021/09/06 03:03:18;;;;;;;1.42;0.70;;;;;;;26.52;21.06;99087.66;5071329;28;20036;-82
2021/09/06 03:05:44;;;;;;;1.00;0.73;;;;;;;26.50;21.22;99092.91;5070841;28;20032;-82
2021/09/06 03:08:10;;;;;;;1.00;0.65;;;;;;;26.59;20.95;99089.56;5054068;28;20047;-82
2021/09/06 03:10:36;;;;;;;1.30;0.80;;;;;;;26.67;22.12;99086.22;5071103;28;20277;-82
2021/09/06 03:13:03;;;;;;;0.70;0.60;;;;;;;26.57;21.26;99086.38;5069634;28;20044;-82
2021/09/06 03:15:29;;;;;;;0.93;0.75;;;;;;;26.63;21.08;99085.44;5052535;28;20028;-82
2021/09/06 03:17:56;;;;;;;0.50;0.50;;;;;;;26.78;20.50;99090.88;5070549;28;20055;-83
2021/09/06 03:20:22;;;;;;;1.13;0.68;;;;;;;26.86;20.85;99089.56;5068467;28;20029;-82
2021/09/06 03:22:48;;;;;;;0.93;0.70;;;;;;;26.91;20.55;99080.63;5068279;28;20381;-82
2021/09/06 03:25:14;;;;;;;1.35;0.93;;;;;;;26.90;20.31;99081.81;5070185;28;20036;-82
2021/09/06 03:27:41;;;;;;;0.98;0.60;;;;;;;26.88;20.37;99082.25;5071752;28;20024;-82
2021/09/06 03:30:08;;;;;;;1.58;0.88;;;;;;;26.74;20.72;99091.72;5070633;28;20029;-82
2021/09/06 03:32:34;;;;;;;1.35;0.90;;;;;;;26.63;21.25;99084.66;5052248;28;20128;-82
2021/09/06 03:35:00;;;;;;;1.02;0.60;;;;;;;26.78;20.33;99082.44;5070565;28;20100;-82
2021/09/06 03:37:26;;;;;;;1.10;0.60;;;;;;;26.90;20.46;99090.28;5051961;28;20032;-82
2021/09/06 03:39:52;;;;;;;0.82;0.77;;;;;;;26.79;20.41;99092.50;5071985;28;20021;-82
2021/09/06 03:42:18;;;;;;;1.52;0.73;;;;;;;26.76;20.52;99090.53;5052088;28;20042;-82
2021/09/06 03:44:44;;;;;;;1.77;0.80;;;;;;;26.98;20.09;99089.72;5071530;28;20041;-82
2021/09/06 03:47:10;;;;;;;0.80;0.77;;;;;;;26.74;20.55;99088.13;5049404;28;20024;-82
2021/09/06 03:49:37;;;;;;;1.20;0.70;;;;;;;26.47;21.21;99093.75;5071414;28;20036;-82
2021/09/06 03:52:03;;;;;;;0.80;0.60;;;;;;;26.44;21.22;99100.25;5070629;28;20028;-82
2021/09/06 03:54:29;;;;;;;0.70;0.70;;;;;;;26.29;21.66;99090.44;5068997;28;20033;-82
2021/09/06 03:56:55;;;;;;;1.17;0.90;;;;;;;26.32;21.54;99097.22;5068975;28;20035;-82
2021/09/06 03:59:21;;;;;;;0.93;0.70;;;;;;;26.16;22.03;99095.06;5071628;28;20103;-82
2021/09/06 04:01:47;;;;;;;1.67;1.15;;;;;;;26.19;21.74;99097.00;5068955;28;20479;-82
2021/09/06 04:04:13;;;;;;;2.22;1.23;;;;;;;26.51;21.37;99102.94;5068402;28;20035;-82
2021/09/06 04:06:39;;;;;;;1.38;1.00;;;;;;;26.66;21.25;99095.06;5071144;28;20020;-82
2021/09/06 04:09:05;;;;;;;0.90;0.80;;;;;;;26.55;21.15;99095.25;5071708;28;20054;-82
2021/09/06 04:11:31;;;;;;;1.15;0.82;;;;;;;26.36;21.60;99093.13;5071330;28;20382;-82
2021/09/06 04:13:57;;;;;;;1.35;0.98;;;;;;;25.92;21.92;99096.16;5068134;28;20037;-82
2021/09/06 04:16:23;;;;;;;1.30;0.70;;;;;;;26.02;21.73;99090.38;5063037;28;20213;-82
2021/09/06 04:18:49;;;;;;;1.33;0.88;;;;;;;25.60;22.22;99095.78;5067362;28;20040;-82
2021/09/06 04:21:15;;;;;;;1.45;1.35;;;;;;;25.66;22.64;99094.06;5065012;28;20036;-82
2021/09/06 04:23:42;;;;;;;1.75;1.08;;;;;;;25.88;22.33;99106.66;5052821;28;20028;-82
2021/09/06 04:26:08;;;;;;;0.90;0.70;;;;;;;26.12;21.86;99104.75;5065597;28;20035;-82
2021/09/06 04:28:34;;;;;;;1.50;1.40;;;;;;;25.88;22.23;99101.81;5063175;28;20102;-82
2021/09/06 04:31:01;;;;;;;1.85;1.10;;;;;;;25.42;22.72;99107.97;5061775;28;20028;-82
2021/09/06 04:33:27;;;;;;;1.10;0.80;;;;;;;25.74;22.31;99106.84;5070798;28;20036;-82
2021/09/06 04:35:53;;;;;;;1.08;0.90;;;;;;;25.69;22.23;99110.94;5067126;28;20029;-82
2021/09/06 04:38:19;;;;;;;0.90;0.80;;;;;;;25.05;23.33;99107.97;5062385;28;20183;-83
2021/09/06 04:40:46;;;;;;;1.45;0.80;;;;;;;25.34;22.76;99112.06;5067481;28;20028;-82
2021/09/06 04:43:12;;;;;;;1.00;0.70;;;;;;;25.48;23.04;99113.19;5065898;28;20094;-82
2021/09/06 04:45:38;;;;;;;1.88;1.00;;;;;;;25.23;23.24;99116.22;5061632;28;20056;-82
2021/09/06 04:48:04;;;;;;;0.90;0.70;;;;;;;25.41;23.52;99120.44;5051040;28;20031;-82
2021/09/06 04:50:30;;;;;;;3.28;1.23;;;;;;;25.80;23.02;99119.22;5065588;28;20119;-83
2021/09/06 04:52:56;;;;;;;1.00;0.85;;;;;;;26.63;22.28;99116.44;5046843;28;20076;-84
2021/09/06 04:55:23;;;;;;;1.83;1.00;;;;;;;26.52;22.41;99115.03;5067965;28;20114;-83
2021/09/06 04:57:49;;;;;;;1.00;0.88;;;;;;;26.14;23.30;99120.00;5068550;28;20036;-82
2021/09/06 05:00:15;;;;;;;0.73;0.70;;;;;;;26.25;23.02;99108.59;5043916;28;20048;-79
2021/09/06 05:02:42;;;;;;;1.63;1.35;;;;;;;25.64;23.59;99113.41;5070743;28;20029;-79
2021/09/06 05:05:09;;;;;;;0.70;0.70;;;;;;;25.47;24.10;99122.81;5071760;28;20496;-79
2021/09/06 05:07:35;;;;;;;2.35;0.90;;;;;;;26.09;23.58;99120.47;5072349;28;20033;-80
2021/09/06 05:10:01;;;;;;;1.35;1.05;;;;;;;26.50;23.46;99126.72;5068281;28;20044;-80
2021/09/06 05:12:27;;;;;;;1.27;0.88;;;;;;;26.91;22.76;99120.84;5073112;28;20118;-81
2021/09/06 05:14:53;;;;;;;3.03;1.05;;;;;;;27.43;22.24;99121.16;5070805;28;20025;-79
2021/09/06 05:17:19;;;;;;;4.88;1.90;;;;;;;26.78;22.80;99121.88;5068981;28;20059;-80
2021/09/06 05:19:45;;;;;;;2.25;1.13;;;;;;;26.53;23.30;99125.88;5062283;28;20051;-81
2021/09/06 05:22:11;;;;;;;2.85;1.02;;;;;;;25.68;23.79;99131.03;5053053;28;20028;-81
2021/09/06 05:24:37;;;;;;;1.45;1.10;;;;;;;25.80;24.25;99128.47;5072572;28;20036;-80
2021/09/06 05:27:04;;;;;;;1.20;1.10;;;;;;;25.53;24.60;99121.16;5072715;28;20028;-80
2021/09/06 05:29:30;;;;;;;1.20;1.10;;;;;;;25.79;24.28;99121.22;5071565;28;20107;-81
2021/09/06 05:31:56;;;;;;;1.50;1.10;;;;;;;26.23;24.29;99120.28;5071825;28;20032;-81
2021/09/06 05:34:22;;;;;;;2.08;1.17;;;;;;;26.16;24.31;99128.03;5070876;28;20040;-80
2021/09/06 05:36:48;;;;;;;1.55;1.00;;;;;;;26.16;24.71;99131.66;5072545;28;20028;-80
2021/09/06 05:39:14;;;;;;;1.58;1.25;;;;;;;26.29;25.22;99124.22;5072556;28;20067;-80
2021/09/06 05:41:40;;;;;;;1.13;0.98;;;;;;;26.09;24.34;99131.72;5072543;28;20040;-80
2021/09/06 05:44:08;;;;;;;1.42;0.93;;;;;;;27.11;24.32;99123.72;5072625;28;20036;-80
2021/09/06 05:46:34;;;;;;;0.95;0.82;;;;;;;27.17;23.94;99119.19;5072683;28;20033;-81
2021/09/06 05:49:00;;;;;;;1.23;0.95;;;;;;;27.04;23.92;99121.84;5071956;28;20480;-81
2021/09/06 05:51:26;;;;;;;1.10;0.93;;;;;;;26.20;24.46;99123.16;5052417;28;20052;-80
2021/09/06 05:53:54;;;;;;;2.45;1.23;;;;;;;25.93;24.97;99121.06;5052624;28;20472;-80
2021/09/06 05:56:20;;;;;;;2.38;1.13;;;;;;;25.89;25.25;99125.13;5052583;28;20055;-80
2021/09/06 05:58:48;;;;;;;2.65;1.10;;;;;;;26.61;24.92;99123.72;5055121;28;20028;-80
2021/09/06 06:01:14;;;;;;;0.98;0.73;;;;;;;27.51;24.17;99122.63;5072027;28;20078;-80
2021/09/06 06:03:40;;;;;;;1.58;0.70;;;;;;;27.53;23.98;99125.00;5070984;28;20093;-80
2021/09/06 06:06:06;;;;;;;1.20;0.93;;;;;;;27.28;24.49;99131.84;5075009;28;20032;-80
2021/09/06 06:08:32;;;;;;;1.05;0.80;;;;;;;26.91;24.36;99126.47;5075650;28;20530;-80
2021/09/06 06:10:58;;;;;;;1.30;0.90;;;;;;;26.48;25.11;99126.34;5057534;28;20537;-80
2021/09/06 06:13:24;;;;;;;2.85;1.08;;;;;;;25.61;26.84;99131.91;5074628;28;20036;-80
2021/09/06 06:15:50;;;;;;;1.40;1.00;;;;;;;26.34;25.16;99126.56;5076121;28;20036;-80
2021/09/06 06:18:16;;;;;;;1.20;0.90;;;;;;;27.11;25.12;99120.91;5075793;28;20101;-81
2021/09/06 06:20:42;;;;;;;2.33;0.63;;;;;;;27.50;24.35;99118.19;5075317;28;20520;-80
2021/09/06 06:23:08;;;;;;;1.42;0.88;;;;;;;27.03;24.10;99119.44;5075744;28;20519;-80
2021/09/06 06:25:34;;;;;;;0.82;0.70;;;;;;;27.34;24.74;99118.06;5057059;28;20542;-80
2021/09/06 06:28:00;;;;;;;1.17;0.52;;;;;;;28.77;22.74;99109.00;5075265;28;20032;-80
2021/09/06 06:30:26;;;;;;;0.82;0.60;;;;;;;29.59;21.48;99116.94;5075750;28;20025;-80
2021/09/06 06:32:52;;;;;;;0.88;0.80;;;;;;;29.26;21.77;99108.53;5075395;28;20059;-80
2021/09/06 06:35:19;;;;;;;1.33;0.60;;;;;;;29.31;22.39;99124.19;5074665;28;20119;-80
2021/09/06 06:37:45;;;;;;;1.40;0.85;;;;;;;29.17;22.50;99121.69;5075454;28;20065;-80
2021/09/06 06:40:13;;;;;;;0.80;0.70;;;;;;;29.26;21.53;99128.34;5075277;28;20085;-81
2021/09/06 06:42:39;;;;;;;1.08;0.70;;;;;;;29.52;21.47;99128.47;5074823;28;20075;-80
2021/09/06 06:45:05;;;;;;;0.88;0.50;;;;;;;30.09;21.44;99126.41;5057176;28;20037;-80
2021/09/06 06:47:31;;;;;;;0.68;0.50;;;;;;;29.98;21.84;99130.78;5075600;28;20033;-81
2021/09/06 06:49:58;;;;;;;0.73;0.50;;;;;;;30.06;21.95;99130.13;5074928;28;20176;-81
2021/09/06 06:52:24;;;;;;;1.52;0.80;;;;;;;28.85;22.28;99133.81;5057493;28;20043;-81
2021/09/06 06:54:50;;;;;;;0.75;0.60;;;;;;;28.89;22.57;99130.91;5075145;28;20036;-81
2021/09/06 06:57:18;;;;;;;0.70;0.65;;;;;;;29.19;22.15;99134.19;5073036;28;20067;-81
2021/09/06 06:59:44;;;;;;;0.80;0.80;;;;;;;28.54;22.93;99144.59;5075252;28;20147;-81
2021/09/06 07:02:10;;;;;;;1.08;0.90;;;;;;;28.15;23.49;99141.06;5075116;28;20445;-80
2021/09/06 07:04:36;;;;;;;1.00;0.73;;;;;;;28.12;23.53;99145.59;5073310;28;20042;-81
2021/09/06 07:07:03;;;;;;;2.25;0.80;;;;;;;28.56;23.44;99139.34;5060230;28;20107;-80
2021/09/06 07:09:29;;;;;;;1.00;0.70;;;;;;;27.88;24.32;99161.78;5075065;28;20384;-80
2021/09/06 07:11:55;;;;;;;0.70;0.70;;;;;;;28.72;23.82;99158.38;5074864;28;20060;-80
2021/09/06 07:14:21;;;;;;;1.13;0.95;;;;;;;27.94;24.00;99159.22;5074541;28;20025;-80
2021/09/06 07:16:47;;;;;;;2.28;0.60;;;;;;;29.36;23.14;99158.38;5055945;28;20059;-80
2021/09/06 07:19:13;;;;;;;1.63;0.80;;;;;;;29.21;22.42;99164.84;5074585;28;20068;-80
2021/09/06 07:21:39;;;;;;;0.85;0.50;;;;;;;29.49;21.72;99160.47;5074651;28;20032;-80
2021/09/06 07:24:05;;;;;;;0.57;0.43;;;;;;;30.21;22.39;99161.66;5074569;28;20094;-80
2021/09/06 07:26:31;;;;;;;0.70;0.60;;;;;;;30.62;21.67;99166.50;5075044;28;20037;-80
2021/09/06 07:28:59;;;;;;;0.82;0.52;;;;;;;31.45;20.40;99164.19;5073914;28;20072;-80
2021/09/06 07:31:25;;;;;;;0.50;0.50;;;;;;;31.03;21.60;99160.72;5073960;28;20476;-80
2021/09/06 07:33:51;;;;;;;0.90;0.55;;;;;;;31.57;20.21;99163.34;5074639;28;20426;-81
2021/09/06 07:36:17;;;;;;;0.35;0.30;;;;;;;31.26;20.41;99170.91;5074089;28;20029;-81
2021/09/06 07:38:43;;;;;;;0.57;0.40;;;;;;;31.04;20.83;99165.13;5073928;28;20033;-81
2021/09/06 07:41:09;;;;;;;1.02;0.60;;;;;;;28.96;21.71;99165.47;5074038;28;20081;-80
2021/09/06 07:43:35;;;;;;;0.88;0.70;;;;;;;27.66;24.65;99173.91;5074376;28;20032;-81
2021/09/06 07:46:01;;;;;;;0.60;0.50;;;;;;;28.77;23.81;99160.66;5073515;28;20082;-81
2021/09/06 07:48:27;;;;;;;0.90;0.60;;;;;;;29.27;22.76;99171.56;5074132;28;20032;-81
2021/09/06 07:50:53;;;;;;;1.63;0.50;;;;;;;28.20;23.63;99169.59;5074255;28;20044;-80
2021/09/06 07:53:22;;;;;;;0.60;0.60;;;;;;;27.59;23.38;99177.66;5072709;28;20040;-81
2021/09/06 07:55:48;;;;;;;1.20;0.70;;;;;;;27.16;24.73;99179.63;5074277;28;20032;-81
2021/09/06 07:58:14;;;;;;;0.38;0.20;;;;;;;27.99;23.56;99182.16;5071043;28;20031;-81
2021/09/06 08:00:40;;;;;;;1.45;0.52;;;;;;;27.80;23.62;99188.53;5072943;28;20109;-80
2021/09/06 08:03:06;;;;;;;0.73;0.50;;;;;;;28.16;24.00;99183.00;5073397;28;20039;-81
2021/09/06 08:05:32;;;;;;;1.15;1.10;;;;;;;28.68;22.48;99183.88;5072908;28;20032;-80
2021/09/06 08:07:58;;;;;;;1.88;0.40;;;;;;;28.74;22.21;99175.66;5055477;28;20035;-81
2021/09/06 08:10:25;;;;;;;0.47;0.40;;;;;;;28.91;22.23;99174.47;5073748;28;20036;-81
2021/09/06 08:12:51;;;;;;;1.02;0.60;;;;;;;27.81;23.23;99181.69;5073465;28;20046;-80
2021/09/06 08:15:18;;;;;;;0.93;0.70;;;;;;;28.73;22.18;99171.25;5073406;28;20029;-81
2021/09/06 08:17:44;;;;;;;0.65;0.57;;;;;;;29.31;22.30;99169.44;5073776;28;20422;-81
2021/09/06 08:20:13;;;;;;;6.18;0.65;;;;;;;28.83;21.17;99166.56;5073381;28;20416;-81
2021/09/06 08:22:39;;;;;;;2.45;0.40;;;;;;;29.28;21.39;99173.94;5072370;28;20063;-81
2021/09/06 08:25:08;;;;;;;1.50;0.40;;;;;;;29.33;20.63;99172.63;5073317;28;20037;-81
2021/09/06 08:27:34;;;;;;;0.60;0.40;;;;;;;28.30;21.87;99177.06;5073273;28;20028;-81
2021/09/06 08:30:00;;;;;;;1.77;0.57;;;;;;;28.61;21.67;99172.72;5072894;28;20028;-81
2021/09/06 08:32:26;;;;;;;0.85;0.40;;;;;;;26.79;22.93;99171.38;5073260;28;20085;-81
2021/09/06 08:34:52;;;;;;;0.63;0.40;;;;;;;27.07;23.36;99182.22;5073455;28;20031;-81
2021/09/06 08:37:22;;;;;;;0.60;0.50;;;;;;;27.62;22.38;99173.97;5073131;28;20040;-81
2021/09/06 08:39:49;;;;;;;0.68;0.50;;;;;;;28.91;21.70;99176.50;5072935;28;20427;-81
2021/09/06 08:42:16;;;;;;;0.77;0.50;;;;;;;28.43;20.83;99177.97;5072588;28;20041;-81
2021/09/06 08:44:43;;;;;;;0.68;0.50;;;;;;;26.82;23.14;99187.44;5073042;28;20032;-81
2021/09/06 08:47:10;;;;;;;0.68;0.40;;;;;;;28.46;21.62;99187.59;5055370;28;20499;-80
2021/09/06 08:49:36;;;;;;;1.23;0.68;;;;;;;28.53;21.74;99195.91;5073192;28;20037;-81
2021/09/06 08:52:02;;;;;;;0.50;0.50;;;;;;;29.35;20.79;99193.56;5072488;28;20110;-81
2021/09/06 08:54:28;;;;;;;0.95;0.70;;;;;;;27.29;22.54;99201.16;5072809;28;20036;-81
2021/09/06 08:56:54;;;;;;;0.47;0.40;;;;;;;28.61;22.57;99186.09;5073715;28;20033;-81
2021/09/06 08:59:21;;;;;;;0.70;0.60;;;;;;;29.32;21.90;99190.81;5072621;28;20039;-81
2021/09/06 09:01:50;;;;;;;0.47;0.45;;;;;;;29.23;21.71;99196.31;5072945;28;20021;-81
2021/09/06 09:04:21;;;;;;;0.70;0.50;;;;;;;30.07;20.10;99190.41;5073030;28;20071;-81
2021/09/06 09:06:48;;;;;;;1.17;0.35;;;;;;;29.92;21.76;99183.56;5072686;28;20113;-81
2021/09/06 09:09:26;;;;;;;0.68;0.63;;;;;;;28.88;20.81;99189.47;5072941;28;20058;-81
2021/09/06 09:12:22;;;;;;;1.17;0.70;;;;;;;27.91;22.75;99202.47;5053048;28;20037;-81
2021/09/06 09:14:53;;;;;;;0.82;0.70;;;;;;;27.40;22.95;99200.97;5040216;28;20516;-81
2021/09/06 09:17:20;;;;;;;0.80;0.50;;;;;;;28.56;22.47;99195.84;5063533;28;20033;-81
2021/09/06 09:19:46;;;;;;;0.98;0.60;;;;;;;28.47;21.34;99195.63;5072692;28;20087;-81
2021/09/06 09:22:19;;;;;;;0.85;0.60;;;;;;;28.32;21.71;99190.72;5054839;28;20467;-81
2021/09/06 09:24:56;;;;;;;1.55;1.10;;;;;;;28.60;22.15;99187.31;5071463;28;20123;-81
2021/09/06 09:27:36;;;;;;;4.03;0.77;;;;;;;27.92;22.15;99189.91;5072187;28;20111;-81
2021/09/06 09:30:05;;;;;;;1.23;0.60;;;;;;;29.50;20.98;99179.06;5073049;28;20024;-81
2021/09/06 09:32:37;;;;;;;0.60;0.50;;;;;;;30.38;20.62;99177.38;5072667;28;20033;-80
2021/09/06 09:35:04;;;;;;;2.83;0.88;;;;;;;28.75;22.03;99180.88;5072804;28;20021;-81
2021/09/06 09:37:30;;;;;;;0.80;0.63;;;;;;;30.52;20.43;99184.66;5073053;28;20024;-81
2021/09/06 09:40:04;;;;;;;2.55;0.60;;;;;;;28.06;21.39;99192.50;5073609;28;20029;-80
2021/09/06 09:42:30;;;;;;;0.90;0.68;;;;;;;27.00;23.31;99174.66;5054411;28;20025;-81
2021/09/06 09:44:58;;;;;;;2.50;0.77;;;;;;;29.24;21.75;99176.06;5069125;28;20098;-81
2021/09/06 09:47:26;;;;;;;1.00;0.80;;;;;;;28.58;22.31;99173.59;5075367;28;20060;-80
2021/09/06 09:49:54;;;;;;;1.15;0.75;;;;;;;29.71;20.85;99169.97;5075780;28;20041;-81
2021/09/06 09:52:22;;;;;;;0.85;0.60;;;;;;;27.82;22.34;99179.66;5076535;28;20036;-80
2021/09/06 09:54:52;;;;;;;0.63;0.60;;;;;;;26.91;22.55;99176.44;5076290;28;20037;-80
2021/09/06 09:57:19;;;;;;;1.35;0.60;;;;;;;28.00;22.29;99172.47;5063623;28;20392;-80
2021/09/06 09:59:46;;;;;;;1.20;0.80;;;;;;;29.81;21.38;99166.06;5076457;28;20032;-81
2021/09/06 10:02:15;;;;;;;0.98;0.80;;;;;;;28.17;23.85;99176.13;5076349;28;20024;-81
2021/09/06 10:04:50;;;;;;;1.27;0.60;;;;;;;27.72;23.15;99161.69;5076107;28;20033;-81
2021/09/06 10:07:18;;;;;;;0.77;0.68;;;;;;;27.45;23.77;99161.00;5076612;28;20037;-81
2021/09/06 10:09:47;;;;;;;1.10;0.80;;;;;;;26.93;24.39;99159.91;5076324;28;20036;-81
2021/09/06 10:12:23;;;;;;;0.70;0.55;;;;;;;29.34;21.79;99149.53;5075349;28;20060;-81
2021/09/06 10:14:57;;;;;;;0.77;0.60;;;;;;;30.68;21.73;99148.47;5075757;28;20040;-81
2021/09/06 10:17:39;;;;;;;1.08;0.60;;;;;;;29.71;20.72;99153.00;5057535;28;20472;-81
2021/09/06 10:20:18;;;;;;;2.25;0.60;;;;;;;30.84;20.55;99147.56;5075781;28;20053;-81
2021/09/06 10:22:46;;;;;;;1.33;0.60;;;;;;;31.83;18.89;99150.66;5076005;28;20051;-81
2021/09/06 10:25:19;;;;;;;1.63;0.55;;;;;;;32.07;18.23;99143.25;5075801;28;20074;-81
2021/09/06 10:27:54;;;;;;;0.63;0.50;;;;;;;29.08;19.39;99142.09;5075868;28;20033;-81
2021/09/06 10:30:31;;;;;;;3.38;0.60;;;;;;;28.06;22.17;99147.31;5076017;28;20039;-81
2021/09/06 10:32:57;;;;;;;0.80;0.60;;;;;;;28.01;20.99;99148.63;5057947;28;20484;-80
2021/09/06 10:35:27;;;;;;;0.75;0.50;;;;;;;30.04;21.08;99140.31;5075683;28;20024;-81
2021/09/06 10:38:10;;;;;;;0.88;0.40;;;;;;;30.28;20.05;99133.13;5076146;28;20484;-81
2021/09/06 10:40:39;;;;;;;0.77;0.40;;;;;;;30.19;19.17;99143.53;5073736;28;20032;-81
2021/09/06 10:43:24;;;;;;;0.95;0.50;;;;;;;30.14;18.15;99144.06;5075429;28;20480;-80
2021/09/06 10:45:52;;;;;;;0.77;0.45;;;;;;;30.31;17.89;99137.09;5055793;28;20029;-81
2021/09/06 10:48:24;;;;;;;0.75;0.47;;;;;;;29.61;19.32;99128.59;5073391;28;20041;-81
2021/09/06 10:50:52;;;;;;;0.90;0.50;;;;;;;30.58;20.51;99128.97;5075530;28;20484;-81
2021/09/06 10:53:21;;;;;;;0.63;0.40;;;;;;;31.73;18.42;99131.13;5075125;28;20066;-81
2021/09/06 10:55:50;;;;;;;1.50;0.60;;;;;;;32.78;18.18;99126.25;5075191;28;20031;-81
2021/09/06 10:58:16;;;;;;;0.73;0.40;;;;;;;32.00;18.33;99129.31;5075653;28;20027;-80
2021/09/06 11:00:52;;;;;;;1.20;0.50;;;;;;;29.75;18.72;99131.03;5057404;28;20031;-80
2021/09/06 11:03:20;;;;;;;0.80;0.40;;;;;;;29.76;20.52;99126.97;5075499;28;20510;-81
2021/09/06 11:05:57;;;;;;;0.38;0.38;;;;;;;32.06;17.55;99121.78;5074422;28;20484;-81
2021/09/06 11:08:29;;;;;;;0.45;0.40;;;;;;;29.76;18.99;99122.13;5074618;28;20129;-81
2021/09/06 11:10:56;;;;;;;0.60;0.50;;;;;;;28.14;21.01;99126.16;5071270;28;20519;-80
2021/09/06 11:13:31;;;;;;;1.00;0.60;;;;;;;27.42;22.46;99128.03;5095709;28;20467;-80
2021/09/06 11:15:57;;;;;;;0.40;0.40;;;;;;;28.16;21.30;99120.06;5095524;28;20448;-80
2021/09/06 11:18:23;;;;;;;0.57;0.50;;;;;;;29.79;19.60;99126.09;5095143;28;20066;-81
2021/09/06 11:20:49;;;;;;;0.70;0.50;;;;;;;32.27;16.83;99117.31;5095055;28;20086;-81
2021/09/06 11:23:15;;;;;;;0.77;0.40;;;;;;;33.24;17.86;99112.94;5079651;28;20044;-81
2021/09/06 11:25:42;;;;;;;0.50;0.50;;;;;;;33.35;17.56;99116.16;5074615;28;20036;-81
2021/09/06 11:28:13;;;;;;;1.20;0.50;;;;;;;32.29;18.74;99120.50;5074927;28;20032;-81
2021/09/06 11:30:43;;;;;;;0.75;0.50;;;;;;;31.48;19.32;99114.22;5074805;28;20115;-81
2021/09/06 11:33:12;;;;;;;0.30;0.30;;;;;;;32.23;18.22;99115.88;5071783;28;20327;-81